sensor_id;sensor_type;location;lat;lon;timestamp;pressure;altitude;pressure_sealevel;temperature;humidity
75359;BME280;64046;51.978;5.934;2024-03-23T00:53:36;100924.34;;;14.22;87.56
75359;BME280;64046;51.978;5.934;2024-03-23T00:56:05;100912.56;;;14.44;86.95
75359;BME280;64046;51.978;5.934;2024-03-23T00:58:32;100898.59;;;14.27;86.94
75359;BME280;64046;51.978;5.934;2024-03-23T01:00:59;100910.06;;;14.26;86.60
75359;BME280;64046;51.978;5.934;2024-03-23T01:03:26;100909.47;;;14.21;86.70
75359;BME280;64046;51.978;5.934;2024-03-23T01:05:52;100910.34;;;14.22;86.60
75359;BME280;64046;51.978;5.934;2024-03-23T01:08:19;100903.28;;;14.22;86.44
75359;BME280;64046;51.978;5.934;2024-03-23T01:10:54;100901.72;;;14.48;85.44
75359;BME280;64046;51.978;5.934;2024-03-23T01:13:23;100905.66;;;14.41;85.60
75359;BME280;64046;51.978;5.934;2024-03-23T01:15:50;100912.88;;;14.23;85.89
75359;BME280;64046;51.978;5.934;2024-03-23T01:18:18;100914.09;;;14.17;85.84
75359;BME280;64046;51.978;5.934;2024-03-23T01:20:45;100893.00;;;14.17;85.82
75359;BME280;64046;51.978;5.934;2024-03-23T01:23:12;100891.03;;;14.21;85.82
75359;BME280;64046;51.978;5.934;2024-03-23T01:25:39;100893.66;;;14.21;85.49
75359;BME280;64046;51.978;5.934;2024-03-23T01:28:06;100880.97;;;14.28;85.15
75359;BME280;64046;51.978;5.934;2024-03-23T01:30:36;100890.91;;;14.39;84.51
75359;BME280;64046;51.978;5.934;2024-03-23T01:33:03;100886.63;;;14.22;84.89
75359;BME280;64046;51.978;5.934;2024-03-23T01:35:29;100884.41;;;14.14;84.73
75359;BME280;64046;51.978;5.934;2024-03-23T01:37:56;100881.13;;;14.10;84.80
75359;BME280;64046;51.978;5.934;2024-03-23T01:40:23;100881.13;;;14.10;84.67
75359;BME280;64046;51.978;5.934;2024-03-23T01:42:56;100865.28;;;14.41;83.47
75359;BME280;64046;51.978;5.934;2024-03-23T01:45:23;100871.50;;;14.09;84.29
75359;BME280;64046;51.978;5.934;2024-03-23T01:47:52;100874.78;;;14.29;83.97
75359;BME280;64046;51.978;5.934;2024-03-23T01:50:19;100875.94;;;14.09;84.44
75359;BME280;64046;51.978;5.934;2024-03-23T01:52:49;100867.06;;;14.10;84.58
75359;BME280;64046;51.978;5.934;2024-03-23T01:55:16;100868.88;;;14.09;84.58
75359;BME280;64046;51.978;5.934;2024-03-23T01:57:43;100874.66;;;14.16;84.35
75359;BME280;64046;51.978;5.934;2024-03-23T02:00:11;100865.16;;;14.28;83.91
75359;BME280;64046;51.978;5.934;2024-03-23T02:02:42;100860.47;;;14.33;83.65
75359;BME280;64046;51.978;5.934;2024-03-23T02:05:13;100861.13;;;14.36;83.12
75359;BME280;64046;51.978;5.934;2024-03-23T02:07:40;100860.06;;;14.25;83.72
75359;BME280;64046;51.978;5.934;2024-03-23T02:10:08;100851.47;;;14.21;83.31
75359;BME280;64046;51.978;5.934;2024-03-23T02:12:35;100849.03;;;14.18;83.35
75359;BME280;64046;51.978;5.934;2024-03-23T02:15:03;100842.00;;;14.18;83.32
75359;BME280;64046;51.978;5.934;2024-03-23T02:17:31;100849.44;;;14.26;83.06
75359;BME280;64046;51.978;5.934;2024-03-23T02:19:59;100839.88;;;14.09;83.16
75359;BME280;64046;51.978;5.934;2024-03-23T02:22:35;100833.94;;;14.36;82.30
75359;BME280;64046;51.978;5.934;2024-03-23T02:25:06;100839.53;;;14.30;82.62
75359;BME280;64046;51.978;5.934;2024-03-23T02:27:33;100837.84;;;14.14;83.14
75359;BME280;64046;51.978;5.934;2024-03-23T02:29:59;100829.25;;;14.11;82.81
75359;BME280;64046;51.978;5.934;2024-03-23T02:32:26;100823.81;;;14.14;82.80
75359;BME280;64046;51.978;5.934;2024-03-23T02:34:53;100821.94;;;14.16;82.95
75359;BME280;64046;51.978;5.934;2024-03-23T02:37:19;100821.06;;;14.15;83.06
75359;BME280;64046;51.978;5.934;2024-03-23T02:39:46;100816.09;;;14.11;82.79
75359;BME280;64046;51.978;5.934;2024-03-23T02:42:15;100821.38;;;14.25;82.01
75359;BME280;64046;51.978;5.934;2024-03-23T02:44:42;100818.69;;;13.96;82.75
75359;BME280;64046;51.978;5.934;2024-03-23T02:47:09;100818.13;;;13.91;82.93
75359;BME280;64046;51.978;5.934;2024-03-23T02:49:35;100812.16;;;13.88;83.02
75359;BME280;64046;51.978;5.934;2024-03-23T02:52:02;100815.72;;;13.87;83.01
75359;BME280;64046;51.978;5.934;2024-03-23T02:54:29;100824.00;;;13.80;83.11
75359;BME280;64046;51.978;5.934;2024-03-23T02:56:56;100815.41;;;13.77;83.34
75359;BME280;64046;51.978;5.934;2024-03-23T02:59:25;100819.88;;;13.91;83.13
75359;BME280;64046;51.978;5.934;2024-03-23T03:01:52;100816.56;;;13.73;83.65
75359;BME280;64046;51.978;5.934;2024-03-23T03:04:18;100816.66;;;13.71;83.57
75359;BME280;64046;51.978;5.934;2024-03-23T03:06:46;100830.00;;;13.82;83.40
75359;BME280;64046;51.978;5.934;2024-03-23T03:09:14;100824.69;;;13.68;83.60
75359;BME280;64046;51.978;5.934;2024-03-23T03:11:42;100827.50;;;13.65;83.68
75359;BME280;64046;51.978;5.934;2024-03-23T03:14:08;100825.81;;;13.64;83.87
75359;BME280;64046;51.978;5.934;2024-03-23T03:16:37;100824.00;;;13.80;83.52
75359;BME280;64046;51.978;5.934;2024-03-23T03:19:04;100828.63;;;13.61;83.97
75359;BME280;64046;51.978;5.934;2024-03-23T03:21:31;100827.78;;;13.60;84.03
75359;BME280;64046;51.978;5.934;2024-03-23T03:23:58;100832.22;;;13.60;84.31
75359;BME280;64046;51.978;5.934;2024-03-23T03:26:24;100831.78;;;13.52;84.34
75359;BME280;64046;51.978;5.934;2024-03-23T03:28:51;100834.41;;;13.52;84.51
75359;BME280;64046;51.978;5.934;2024-03-23T03:31:18;100831.78;;;13.52;84.45
75359;BME280;64046;51.978;5.934;2024-03-23T03:33:49;100830.91;;;13.67;83.86
75359;BME280;64046;51.978;5.934;2024-03-23T03:36:16;100826.28;;;13.40;84.72
75359;BME280;64046;51.978;5.934;2024-03-23T03:38:43;100835.88;;;13.41;84.70
75359;BME280;64046;51.978;5.934;2024-03-23T03:41:09;100817.63;;;13.38;84.88
75359;BME280;64046;51.978;5.934;2024-03-23T03:43:36;100817.69;;;13.37;84.64
75359;BME280;64046;51.978;5.934;2024-03-23T03:46:03;100818.63;;;13.36;85.09
75359;BME280;64046;51.978;5.934;2024-03-23T03:48:30;100812.81;;;13.29;85.09
75359;BME280;64046;51.978;5.934;2024-03-23T03:51:00;100807.41;;;13.48;84.88
75359;BME280;64046;51.978;5.934;2024-03-23T03:53:26;100802.91;;;13.34;85.21
75359;BME280;64046;51.978;5.934;2024-03-23T03:55:53;100802.84;;;13.36;85.07
75359;BME280;64046;51.978;5.934;2024-03-23T03:58:20;100796.56;;;13.38;84.96
75359;BME280;64046;51.978;5.934;2024-03-23T04:00:47;100802.75;;;13.37;85.00
75359;BME280;64046;51.978;5.934;2024-03-23T04:03:13;100793.06;;;13.38;85.18
75359;BME280;64046;51.978;5.934;2024-03-23T04:05:40;100800.78;;;13.41;84.95
75359;BME280;64046;51.978;5.934;2024-03-23T04:08:10;100797.19;;;13.58;84.24
75359;BME280;64046;51.978;5.934;2024-03-23T04:10:36;100803.78;;;13.35;84.72
75359;BME280;64046;51.978;5.934;2024-03-23T04:13:03;100789.75;;;13.34;84.85
75359;BME280;64046;51.978;5.934;2024-03-23T04:15:30;100792.53;;;13.31;84.81
75359;BME280;64046;51.978;5.934;2024-03-23T04:17:57;100801.56;;;13.27;84.85
75359;BME280;64046;51.978;5.934;2024-03-23T04:20:23;100792.03;;;13.24;84.53
75359;BME280;64046;51.978;5.934;2024-03-23T04:22:51;100792.88;;;13.25;84.43
75359;BME280;64046;51.978;5.934;2024-03-23T04:25:20;100790.66;;;13.33;84.08
75359;BME280;64046;51.978;5.934;2024-03-23T04:27:46;100785.69;;;13.12;84.21
75359;BME280;64046;51.978;5.934;2024-03-23T04:30:13;100796.13;;;13.14;84.22
75359;BME280;64046;51.978;5.934;2024-03-23T04:32:40;100785.50;;;13.15;84.01
75359;BME280;64046;51.978;5.934;2024-03-23T04:35:08;100799.50;;;13.16;83.68
75359;BME280;64046;51.978;5.934;2024-03-23T04:37:35;100788.63;;;13.06;83.50
75359;BME280;64046;51.978;5.934;2024-03-23T04:40:02;100790.44;;;13.06;83.34
75359;BME280;64046;51.978;5.934;2024-03-23T04:42:32;100791.53;;;13.18;82.61
75359;BME280;64046;51.978;5.934;2024-03-23T04:44:59;100791.78;;;12.97;83.09
75359;BME280;64046;51.978;5.934;2024-03-23T04:47:25;100796.44;;;12.92;83.10
75359;BME280;64046;51.978;5.934;2024-03-23T04:49:53;100789.25;;;12.95;82.84
75359;BME280;64046;51.978;5.934;2024-03-23T04:52:19;100773.69;;;12.91;82.52
75359;BME280;64046;51.978;5.934;2024-03-23T04:54:46;100782.38;;;12.93;82.29
75359;BME280;64046;51.978;5.934;2024-03-23T04:57:13;100780.66;;;12.92;82.34
75359;BME280;64046;51.978;5.934;2024-03-23T04:59:49;100778.72;;;13.11;81.71
75359;BME280;64046;51.978;5.934;2024-03-23T05:02:16;100787.72;;;12.91;81.66
75359;BME280;64046;51.978;5.934;2024-03-23T05:04:42;100783.19;;;12.93;81.51
75359;BME280;64046;51.978;5.934;2024-03-23T05:07:09;100773.78;;;12.89;81.37
75359;BME280;64046;51.978;5.934;2024-03-23T05:09:36;100769.56;;;12.87;80.94
75359;BME280;64046;51.978;5.934;2024-03-23T05:12:03;100771.22;;;12.88;80.85
75359;BME280;64046;51.978;5.934;2024-03-23T05:14:29;100782.09;;;12.81;80.60
75359;BME280;64046;51.978;5.934;2024-03-23T05:16:59;100779.47;;;12.97;79.53
75359;BME280;64046;51.978;5.934;2024-03-23T05:19:25;100786.06;;;12.73;79.74
75359;BME280;64046;51.978;5.934;2024-03-23T05:21:52;100787.16;;;12.69;79.29
75359;BME280;64046;51.978;5.934;2024-03-23T05:24:19;100786.25;;;12.70;78.84
75359;BME280;64046;51.978;5.934;2024-03-23T05:26:46;100788.19;;;12.66;78.67
75359;BME280;64046;51.978;5.934;2024-03-23T05:29:12;100790.34;;;12.58;78.44
75359;BME280;64046;51.978;5.934;2024-03-23T05:31:39;100788.69;;;12.57;78.34
75359;BME280;64046;51.978;5.934;2024-03-23T05:34:10;100786.91;;;12.73;77.80
75359;BME280;64046;51.978;5.934;2024-03-23T05:36:36;100793.06;;;12.56;78.12
75359;BME280;64046;51.978;5.934;2024-03-23T05:39:03;100786.72;;;12.60;78.12
75359;BME280;64046;51.978;5.934;2024-03-23T05:41:30;100794.53;;;12.62;77.65
75359;BME280;64046;51.978;5.934;2024-03-23T05:43:57;100790.44;;;12.56;77.59
75359;BME280;64046;51.978;5.934;2024-03-23T05:46:24;100792.47;;;12.51;77.52
75359;BME280;64046;51.978;5.934;2024-03-23T05:48:50;100787.69;;;12.42;77.81
75359;BME280;64046;51.978;5.934;2024-03-23T05:51:29;100793.16;;;12.55;77.57
75359;BME280;64046;51.978;5.934;2024-03-23T05:53:55;100787.09;;;12.37;77.64
75359;BME280;64046;51.978;5.934;2024-03-23T05:56:22;100787.88;;;12.39;77.66
75359;BME280;64046;51.978;5.934;2024-03-23T05:58:49;100780.84;;;12.39;77.51
75359;BME280;64046;51.978;5.934;2024-03-23T06:01:15;100787.94;;;12.37;77.16
75359;BME280;64046;51.978;5.934;2024-03-23T06:03:42;100790.91;;;12.31;77.57
75359;BME280;64046;51.978;5.934;2024-03-23T06:06:09;100794.53;;;12.28;77.79
75359;BME280;64046;51.978;5.934;2024-03-23T06:08:39;100790.03;;;12.48;77.68
75359;BME280;64046;51.978;5.934;2024-03-23T06:11:06;100785.94;;;12.42;77.79
75359;BME280;64046;51.978;5.934;2024-03-23T06:13:33;100790.66;;;12.36;77.81
75359;BME280;64046;51.978;5.934;2024-03-23T06:15:59;100786.25;;;12.36;77.85
75359;BME280;64046;51.978;5.934;2024-03-23T06:18:26;100786.94;;;12.40;77.77
75359;BME280;64046;51.978;5.934;2024-03-23T06:20:53;100799.06;;;12.42;77.37
75359;BME280;64046;51.978;5.934;2024-03-23T06:23:20;100795.50;;;12.43;77.31
75359;BME280;64046;51.978;5.934;2024-03-23T06:25:49;100789.78;;;12.53;77.08
75359;BME280;64046;51.978;5.934;2024-03-23T06:28:17;100794.91;;;12.38;77.16
75359;BME280;64046;51.978;5.934;2024-03-23T06:30:44;100793.28;;;12.36;76.98
75359;BME280;64046;51.978;5.934;2024-03-23T06:33:11;100793.03;;;12.40;76.96
75359;BME280;64046;51.978;5.934;2024-03-23T06:35:38;100791.94;;;12.44;nan
75359;BME280;64046;51.978;5.934;2024-03-23T06:38:04;100790.78;;;12.50;76.23
75359;BME280;64046;51.978;5.934;2024-03-23T06:40:31;100789.06;;;12.49;75.76
75359;BME280;64046;51.978;5.934;2024-03-23T06:43:00;100780.47;;;12.63;75.45
75359;BME280;64046;51.978;5.934;2024-03-23T06:45:27;100783.13;;;12.45;75.32
75359;BME280;64046;51.978;5.934;2024-03-23T06:47:54;100785.53;;;12.50;75.25
75359;BME280;64046;51.978;5.934;2024-03-23T06:50:20;100787.69;;;12.59;74.72
75359;BME280;64046;51.978;5.934;2024-03-23T06:52:47;100775.72;;;12.70;73.99
75359;BME280;64046;51.978;5.934;2024-03-23T06:55:14;100785.88;;;12.60;74.50
75359;BME280;64046;51.978;5.934;2024-03-23T06:57:41;100789.06;;;12.49;75.13
75359;BME280;64046;51.978;5.934;2024-03-23T07:00:13;100783.69;;;12.68;75.20
75359;BME280;64046;51.978;5.934;2024-03-23T07:02:39;100788.06;;;12.52;75.44
75359;BME280;64046;51.978;5.934;2024-03-23T07:05:06;100788.75;;;12.55;75.49
75359;BME280;64046;51.978;5.934;2024-03-23T07:07:33;100784.88;;;12.62;75.31
75359;BME280;64046;51.978;5.934;2024-03-23T07:10:01;100795.84;;;12.87;74.36
75359;BME280;64046;51.978;5.934;2024-03-23T07:12:30;100785.16;;;12.90;74.06
75359;BME280;64046;51.978;5.934;2024-03-23T07:14:57;100788.72;;;12.73;74.34
75359;BME280;64046;51.978;5.934;2024-03-23T07:17:26;100789.41;;;12.92;73.71
75359;BME280;64046;51.978;5.934;2024-03-23T07:19:53;100789.38;;;12.76;74.09
75359;BME280;64046;51.978;5.934;2024-03-23T07:22:19;100791.34;;;12.73;73.98
75359;BME280;64046;51.978;5.934;2024-03-23T07:24:46;100781.00;;;12.70;74.31
75359;BME280;64046;51.978;5.934;2024-03-23T07:27:13;100787.25;;;12.67;74.66
75359;BME280;64046;51.978;5.934;2024-03-23T07:29:39;100789.72;;;12.70;74.53
75359;BME280;64046;51.978;5.934;2024-03-23T07:32:06;100782.19;;;12.80;74.68
75359;BME280;64046;51.978;5.934;2024-03-23T07:34:36;100787.09;;;13.02;74.07
75359;BME280;64046;51.978;5.934;2024-03-23T07:37:02;100792.09;;;12.91;74.09
75359;BME280;64046;51.978;5.934;2024-03-23T07:39:29;100791.00;;;12.95;74.17
75359;BME280;64046;51.978;5.934;2024-03-23T07:41:56;100791.09;;;13.09;73.42
75359;BME280;64046;51.978;5.934;2024-03-23T07:44:23;100783.63;;;13.02;73.22
75359;BME280;64046;51.978;5.934;2024-03-23T07:46:50;100780.09;;;13.03;73.14
75359;BME280;64046;51.978;5.934;2024-03-23T07:49:16;100779.47;;;12.97;72.65
75359;BME280;64046;51.978;5.934;2024-03-23T07:51:46;100786.97;;;13.05;72.65
75359;BME280;64046;51.978;5.934;2024-03-23T07:54:12;100785.66;;;12.80;72.68
75359;BME280;64046;51.978;5.934;2024-03-23T07:56:39;100779.03;;;12.73;72.97
75359;BME280;64046;51.978;5.934;2024-03-23T07:59:06;100772.19;;;12.87;72.93
75359;BME280;64046;51.978;5.934;2024-03-23T08:01:33;100773.28;;;12.98;72.54
75359;BME280;64046;51.978;5.934;2024-03-23T08:03:59;100783.38;;;13.06;72.24
75359;BME280;64046;51.978;5.934;2024-03-23T08:06:26;100783.56;;;13.03;71.94
75359;BME280;64046;51.978;5.934;2024-03-23T08:08:56;100783.03;;;13.28;71.52
75359;BME280;64046;51.978;5.934;2024-03-23T08:11:25;100780.91;;;13.19;71.34
75359;BME280;64046;51.978;5.934;2024-03-23T08:13:52;100782.19;;;13.28;70.43
75359;BME280;64046;51.978;5.934;2024-03-23T08:16:19;100786.50;;;13.29;70.16
75359;BME280;64046;51.978;5.934;2024-03-23T08:18:46;100779.81;;;13.23;69.91
75359;BME280;64046;51.978;5.934;2024-03-23T08:21:13;100781.59;;;13.23;69.29
75359;BME280;64046;51.978;5.934;2024-03-23T08:23:40;100777.00;;;13.26;69.13
75359;BME280;64046;51.978;5.934;2024-03-23T08:26:10;100779.91;;;13.38;68.27
75359;BME280;64046;51.978;5.934;2024-03-23T08:28:37;100781.94;;;13.16;68.32
75359;BME280;64046;51.978;5.934;2024-03-23T08:31:09;100776.44;;;13.37;67.84
75359;BME280;64046;51.978;5.934;2024-03-23T08:33:37;100779.91;;;13.38;67.75
75359;BME280;64046;51.978;5.934;2024-03-23T08:36:05;100773.09;;;13.49;66.74
75359;BME280;64046;51.978;5.934;2024-03-23T08:38:32;100769.66;;;13.63;65.88
75359;BME280;64046;51.978;5.934;2024-03-23T08:41:01;100777.19;;;13.70;64.60
75359;BME280;64046;51.978;5.934;2024-03-23T08:43:32;100778.09;;;13.84;63.46
75359;BME280;64046;51.978;5.934;2024-03-23T08:46:03;100776.44;;;13.98;62.80
75359;BME280;64046;51.978;5.934;2024-03-23T08:48:30;100773.34;;;13.91;63.09
75359;BME280;64046;51.978;5.934;2024-03-23T08:51:01;100774.03;;;14.24;61.99
75359;BME280;64046;51.978;5.934;2024-03-23T08:53:28;100773.63;;;14.15;61.80
75359;BME280;64046;51.978;5.934;2024-03-23T08:55:55;100768.56;;;14.27;60.87
75359;BME280;64046;51.978;5.934;2024-03-23T08:58:24;100761.06;;;14.49;59.37
75359;BME280;64046;51.978;5.934;2024-03-23T09:00:55;100771.31;;;14.54;58.50
75359;BME280;64046;51.978;5.934;2024-03-23T09:03:22;100779.03;;;14.28;58.02
75359;BME280;64046;51.978;5.934;2024-03-23T09:05:49;100786.38;;;14.23;57.19
75359;BME280;64046;51.978;5.934;2024-03-23T09:08:16;100797.09;;;13.90;56.51
75359;BME280;64046;51.978;5.934;2024-03-23T09:10:43;100794.53;;;13.74;57.20
75359;BME280;64046;51.978;5.934;2024-03-23T09:13:10;100805.88;;;13.44;58.54
75359;BME280;64046;51.978;5.934;2024-03-23T09:15:44;100793.31;;;13.33;59.94
75359;BME280;64046;51.978;5.934;2024-03-23T09:18:14;100783.88;;;13.29;61.21
75359;BME280;64046;51.978;5.934;2024-03-23T09:20:41;100784.38;;;13.04;62.30
75359;BME280;64046;51.978;5.934;2024-03-23T09:23:08;100794.50;;;12.95;63.20
75359;BME280;64046;51.978;5.934;2024-03-23T09:25:36;100783.56;;;13.03;63.59
75359;BME280;64046;51.978;5.934;2024-03-23T09:28:04;100774.66;;;12.90;64.43
75359;BME280;64046;51.978;5.934;2024-03-23T09:30:32;100776.84;;;12.97;64.83
75359;BME280;64046;51.978;5.934;2024-03-23T09:32:59;100770.56;;;13.00;65.05
75359;BME280;64046;51.978;5.934;2024-03-23T09:35:28;100772.44;;;13.30;64.69
75359;BME280;64046;51.978;5.934;2024-03-23T09:37:55;100767.34;;;13.27;65.02
75359;BME280;64046;51.978;5.934;2024-03-23T09:40:21;100765.66;;;13.42;64.72
75359;BME280;64046;51.978;5.934;2024-03-23T09:42:51;100759.03;;;13.65;63.89
75359;BME280;64046;51.978;5.934;2024-03-23T09:45:21;100757.94;;;13.69;63.67
75359;BME280;64046;51.978;5.934;2024-03-23T09:47:49;100752.16;;;13.62;62.84
75359;BME280;64046;51.978;5.934;2024-03-23T09:50:16;100752.16;;;13.62;62.27
75359;BME280;64046;51.978;5.934;2024-03-23T09:52:46;100754.69;;;13.80;61.56
75359;BME280;64046;51.978;5.934;2024-03-23T09:55:13;100746.28;;;13.73;61.76
75359;BME280;64046;51.978;5.934;2024-03-23T09:57:40;100747.53;;;13.82;61.42
75359;BME280;64046;51.978;5.934;2024-03-23T10:00:08;100747.28;;;14.01;61.04
75359;BME280;64046;51.978;5.934;2024-03-23T10:02:35;100748.25;;;14.14;61.11
75359;BME280;64046;51.978;5.934;2024-03-23T10:05:02;100747.38;;;14.28;60.03
75359;BME280;64046;51.978;5.934;2024-03-23T10:07:29;100737.44;;;14.33;59.32
75359;BME280;64046;51.978;5.934;2024-03-23T10:09:58;100731.31;;;14.62;58.68
75359;BME280;64046;51.978;5.934;2024-03-23T10:12:44;100735.06;;;14.58;57.97
75359;BME280;64046;51.978;5.934;2024-03-23T10:15:15;100730.00;;;14.40;58.51
75359;BME280;64046;51.978;5.934;2024-03-23T10:17:44;100736.38;;;14.07;58.28
75359;BME280;64046;51.978;5.934;2024-03-23T10:20:11;100729.91;;;14.13;57.12
75359;BME280;64046;51.978;5.934;2024-03-23T10:22:38;100732.88;;;14.21;56.81
75359;BME280;64046;51.978;5.934;2024-03-23T10:25:11;100739.75;;;14.52;55.99
75359;BME280;64046;51.978;5.934;2024-03-23T10:27:38;100748.34;;;14.42;56.75
75359;BME280;64046;51.978;5.934;2024-03-23T10:30:09;100747.59;;;14.83;56.01
75359;BME280;64046;51.978;5.934;2024-03-23T10:32:36;100761.75;;;14.67;54.12
75359;BME280;64046;51.978;5.934;2024-03-23T10:35:17;100763.50;;;14.81;52.00
75359;BME280;64046;51.978;5.934;2024-03-23T10:37:45;100788.91;;;14.25;53.31
75359;BME280;64046;51.978;5.934;2024-03-23T10:40:15;100765.91;;;14.12;55.10
75359;BME280;64046;51.978;5.934;2024-03-23T10:42:42;100765.97;;;13.82;56.17
75359;BME280;64046;51.978;5.934;2024-03-23T10:45:10;100758.72;;;13.71;56.97
75359;BME280;64046;51.978;5.934;2024-03-23T10:47:37;100753.69;;;13.66;57.76
75359;BME280;64046;51.978;5.934;2024-03-23T10:50:05;100749.53;;;13.62;57.67
75359;BME280;64046;51.978;5.934;2024-03-23T10:52:32;100750.13;;;13.67;57.90
75359;BME280;64046;51.978;5.934;2024-03-23T10:55:02;100748.75;;;13.91;57.65
75359;BME280;64046;51.978;5.934;2024-03-23T10:57:37;100735.91;;;14.00;57.75
75359;BME280;64046;51.978;5.934;2024-03-23T11:00:08;100729.31;;;14.08;58.24
75359;BME280;64046;51.978;5.934;2024-03-23T11:02:36;100730.44;;;14.18;58.18
75359;BME280;64046;51.978;5.934;2024-03-23T11:05:29;100725.66;;;14.68;55.73
75359;BME280;64046;51.978;5.934;2024-03-23T11:07:56;100721.41;;;14.36;54.56
75359;BME280;64046;51.978;5.934;2024-03-23T11:10:27;100719.25;;;14.58;53.93
75359;BME280;64046;51.978;5.934;2024-03-23T11:12:56;100725.66;;;14.53;53.67
75359;BME280;64046;51.978;5.934;2024-03-23T11:15:24;100722.38;;;14.50;53.55
75359;BME280;64046;51.978;5.934;2024-03-23T11:18:04;100721.66;;;14.90;52.49
75359;BME280;64046;51.978;5.934;2024-03-23T11:20:34;100714.66;;;14.88;51.77
75359;BME280;64046;51.978;5.934;2024-03-23T11:23:02;100727.16;;;14.72;50.96
75359;BME280;64046;51.978;5.934;2024-03-23T11:25:29;100735.69;;;14.61;49.43
75359;BME280;64046;51.978;5.934;2024-03-23T11:28:10;100730.44;;;14.76;48.86
75359;BME280;64046;51.978;5.934;2024-03-23T11:30:37;100730.44;;;14.61;49.32
75359;BME280;64046;51.978;5.934;2024-03-23T11:33:04;100718.22;;;14.75;49.00
75359;BME280;64046;51.978;5.934;2024-03-23T11:35:32;100721.75;;;14.88;48.73
75359;BME280;64046;51.978;5.934;2024-03-23T11:38:06;100710.38;;;15.15;48.74
75359;BME280;64046;51.978;5.934;2024-03-23T11:40:34;100721.50;;;15.05;48.24
75359;BME280;64046;51.978;5.934;2024-03-23T11:43:04;100736.19;;;15.10;47.70
75359;BME280;64046;51.978;5.934;2024-03-23T11:45:34;100727.84;;;14.88;48.13
75359;BME280;64046;51.978;5.934;2024-03-23T11:48:04;100733.00;;;14.63;49.27
75359;BME280;64046;51.978;5.934;2024-03-23T11:50:31;100735.06;;;14.58;49.68
75359;BME280;64046;51.978;5.934;2024-03-23T11:53:13;100723.91;;;14.81;49.62
75359;BME280;64046;51.978;5.934;2024-03-23T11:55:43;100722.38;;;14.64;50.11
75359;BME280;64046;51.978;5.934;2024-03-23T11:58:13;100711.81;;;14.64;49.89
75359;BME280;64046;51.978;5.934;2024-03-23T12:00:40;100724.81;;;14.53;50.21
75359;BME280;64046;51.978;5.934;2024-03-23T12:03:06;100726.94;;;14.61;49.94
75359;BME280;64046;51.978;5.934;2024-03-23T12:05:36;100716.81;;;14.69;49.16
75359;BME280;64046;51.978;5.934;2024-03-23T12:08:17;100712.84;;;14.76;48.77
75359;BME280;64046;51.978;5.934;2024-03-23T12:10:46;100726.38;;;14.56;49.02
75359;BME280;64046;51.978;5.934;2024-03-23T12:13:18;100724.72;;;14.69;48.60
75359;BME280;64046;51.978;5.934;2024-03-23T12:15:45;100732.63;;;14.54;49.19
75359;BME280;64046;51.978;5.934;2024-03-23T12:18:13;100724.91;;;14.37;50.16
75359;BME280;64046;51.978;5.934;2024-03-23T12:20:40;100722.09;;;14.11;50.89
75359;BME280;64046;51.978;5.934;2024-03-23T12:23:08;100718.78;;;14.08;50.89
75359;BME280;64046;51.978;5.934;2024-03-23T12:25:36;100724.88;;;13.94;51.07
75359;BME280;64046;51.978;5.934;2024-03-23T12:28:03;100721.69;;;13.89;50.79
75359;BME280;64046;51.978;5.934;2024-03-23T12:30:33;100718.38;;;13.99;50.68
75359;BME280;64046;51.978;5.934;2024-03-23T12:33:00;100712.66;;;13.78;50.83
75359;BME280;64046;51.978;5.934;2024-03-23T12:35:27;100702.16;;;13.77;50.92
75359;BME280;64046;51.978;5.934;2024-03-23T12:37:54;100701.63;;;13.86;50.91
75359;BME280;64046;51.978;5.934;2024-03-23T12:40:21;100696.56;;;13.97;50.64
75359;BME280;64046;51.978;5.934;2024-03-23T12:42:48;100694.22;;;14.07;50.20
75359;BME280;64046;51.978;5.934;2024-03-23T12:45:15;100695.72;;;14.26;49.78
75359;BME280;64046;51.978;5.934;2024-03-23T12:47:44;100682.06;;;14.48;48.87
75359;BME280;64046;51.978;5.934;2024-03-23T12:50:13;100690.06;;;14.32;48.22
75359;BME280;64046;51.978;5.934;2024-03-23T12:52:40;100679.63;;;14.45;48.08
75359;BME280;64046;51.978;5.934;2024-03-23T12:55:07;100677.03;;;14.58;46.94
75359;BME280;64046;51.978;5.934;2024-03-23T12:57:34;100677.72;;;14.47;46.68
75359;BME280;64046;51.978;5.934;2024-03-23T13:00:01;100693.19;;;14.39;46.76
75359;BME280;64046;51.978;5.934;2024-03-23T13:02:28;100691.00;;;14.31;47.59
75359;BME280;64046;51.978;5.934;2024-03-23T13:04:57;100680.25;;;14.48;48.25
75359;BME280;64046;51.978;5.934;2024-03-23T13:07:23;100680.94;;;14.38;48.10
75359;BME280;64046;51.978;5.934;2024-03-23T13:09:50;100672.72;;;14.42;48.25
75359;BME280;64046;51.978;5.934;2024-03-23T13:12:18;100678.31;;;14.38;48.06
75359;BME280;64046;51.978;5.934;2024-03-23T13:14:45;100664.72;;;14.44;46.84
75359;BME280;64046;51.978;5.934;2024-03-23T13:17:12;100673.41;;;14.46;45.99
75359;BME280;64046;51.978;5.934;2024-03-23T13:19:38;100672.16;;;14.51;44.84
75359;BME280;64046;51.978;5.934;2024-03-23T13:22:08;100668.56;;;14.67;44.33
75359;BME280;64046;51.978;5.934;2024-03-23T13:24:34;100666.81;;;14.53;44.60
75359;BME280;64046;51.978;5.934;2024-03-23T13:27:01;100671.09;;;14.54;44.68
75359;BME280;64046;51.978;5.934;2024-03-23T13:29:28;100669.03;;;14.59;44.83
75359;BME280;64046;51.978;5.934;2024-03-23T13:31:54;100675.34;;;14.57;44.80
75359;BME280;64046;51.978;5.934;2024-03-23T13:34:21;100674.13;;;14.48;45.33
75359;BME280;64046;51.978;5.934;2024-03-23T13:36:48;100668.28;;;14.43;45.73
75359;BME280;64046;51.978;5.934;2024-03-23T13:39:17;100672.50;;;14.60;45.82
75359;BME280;64046;51.978;5.934;2024-03-23T13:41:45;100670.88;;;14.44;45.77
75359;BME280;64046;51.978;5.934;2024-03-23T13:44:12;100670.19;;;14.41;45.96
75359;BME280;64046;51.978;5.934;2024-03-23T13:46:40;100683.78;;;14.34;46.10